sensor_id;sensor_type;location;lat;lon;timestamp;P1;durP1;ratioP1;P2;durP2;ratioP2
41685;SDS011;27370;42.764;23.432;2023-07-02T00:01:11;16.30;;;7.22;;
41685;SDS011;27370;42.764;23.432;2023-07-02T00:03:39;13.80;;;7.63;;
41685;SDS011;27370;42.764;23.432;2023-07-02T00:06:05;14.60;;;7.32;;
41685;SDS011;27370;42.764;23.432;2023-07-02T00:08:30;15.15;;;7.13;;
41685;SDS011;27370;42.764;23.432;2023-07-02T00:10:56;14.88;;;7.18;;
41685;SDS011;27370;42.764;23.432;2023-07-02T00:13:21;16.50;;;7.78;;
41685;SDS011;27370;42.764;23.432;2023-07-02T00:15:47;17.98;;;7.78;;
41685;SDS011;27370;42.764;23.432;2023-07-02T00:18:13;16.30;;;6.60;;
41685;SDS011;27370;42.764;23.432;2023-07-02T00:20:42;16.08;;;7.38;;
41685;SDS011;27370;42.764;23.432;2023-07-02T00:23:08;14.00;;;7.25;;
41685;SDS011;27370;42.764;23.432;2023-07-02T00:25:35;17.25;;;7.65;;
41685;SDS011;27370;42.764;23.432;2023-07-02T00:28:01;16.77;;;7.43;;
41685;SDS011;27370;42.764;23.432;2023-07-02T00:30:27;15.57;;;7.28;;
41685;SDS011;27370;42.764;23.432;2023-07-02T00:32:52;25.08;;;7.90;;
41685;SDS011;27370;42.764;23.432;2023-07-02T00:35:18;18.65;;;8.30;;
41685;SDS011;27370;42.764;23.432;2023-07-02T00:37:43;17.98;;;7.82;;
41685;SDS011;27370;42.764;23.432;2023-07-02T00:40:09;20.05;;;8.40;;
41685;SDS011;27370;42.764;23.432;2023-07-02T00:42:35;22.30;;;8.18;;
41685;SDS011;27370;42.764;23.432;2023-07-02T00:45:00;16.90;;;7.78;;
41685;SDS011;27370;42.764;23.432;2023-07-02T00:47:32;16.37;;;7.33;;
41685;SDS011;27370;42.764;23.432;2023-07-02T00:49:59;18.58;;;8.35;;
41685;SDS011;27370;42.764;23.432;2023-07-02T00:52:26;20.38;;;8.38;;
41685;SDS011;27370;42.764;23.432;2023-07-02T00:54:52;20.10;;;8.70;;
41685;SDS011;27370;42.764;23.432;2023-07-02T00:57:18;15.25;;;8.40;;
41685;SDS011;27370;42.764;23.432;2023-07-02T00:59:44;16.92;;;8.43;;
41685;SDS011;27370;42.764;23.432;2023-07-02T01:02:09;24.40;;;9.80;;
41685;SDS011;27370;42.764;23.432;2023-07-02T01:04:35;24.63;;;9.93;;
41685;SDS011;27370;42.764;23.432;2023-07-02T01:07:02;18.77;;;9.02;;
41685;SDS011;27370;42.764;23.432;2023-07-02T01:09:33;28.75;;;9.45;;
41685;SDS011;27370;42.764;23.432;2023-07-02T01:12:00;27.50;;;9.90;;
41685;SDS011;27370;42.764;23.432;2023-07-02T01:14:30;22.02;;;8.95;;
41685;SDS011;27370;42.764;23.432;2023-07-02T01:16:59;29.83;;;9.95;;
41685;SDS011;27370;42.764;23.432;2023-07-02T01:22:25;17.92;;;9.80;;
41685;SDS011;27370;42.764;23.432;2023-07-02T01:24:53;20.20;;;9.10;;
41685;SDS011;27370;42.764;23.432;2023-07-02T01:27:19;17.73;;;9.73;;
41685;SDS011;27370;42.764;23.432;2023-07-02T01:29:46;16.88;;;8.85;;
41685;SDS011;27370;42.764;23.432;2023-07-02T01:32:15;17.02;;;8.23;;
41685;SDS011;27370;42.764;23.432;2023-07-02T01:34:41;19.77;;;8.52;;
41685;SDS011;27370;42.764;23.432;2023-07-02T01:37:09;16.13;;;8.75;;
41685;SDS011;27370;42.764;23.432;2023-07-02T01:39:35;18.48;;;9.20;;
41685;SDS011;27370;42.764;23.432;2023-07-02T01:42:10;17.45;;;8.45;;
41685;SDS011;27370;42.764;23.432;2023-07-02T01:44:37;17.00;;;8.30;;
41685;SDS011;27370;42.764;23.432;2023-07-02T01:47:04;17.80;;;7.82;;
41685;SDS011;27370;42.764;23.432;2023-07-02T01:49:30;15.13;;;8.00;;
41685;SDS011;27370;42.764;23.432;2023-07-02T01:51:57;13.95;;;7.35;;
41685;SDS011;27370;42.764;23.432;2023-07-02T01:54:23;14.00;;;7.35;;
41685;SDS011;27370;42.764;23.432;2023-07-02T01:56:52;15.32;;;7.70;;
41685;SDS011;27370;42.764;23.432;2023-07-02T01:59:19;16.08;;;7.60;;
41685;SDS011;27370;42.764;23.432;2023-07-02T02:01:44;17.63;;;8.07;;
41685;SDS011;27370;42.764;23.432;2023-07-02T02:04:10;15.80;;;7.70;;
41685;SDS011;27370;42.764;23.432;2023-07-02T02:06:36;14.52;;;7.90;;
41685;SDS011;27370;42.764;23.432;2023-07-02T02:09:04;15.65;;;7.50;;
41685;SDS011;27370;42.764;23.432;2023-07-02T02:11:30;15.85;;;7.88;;
41685;SDS011;27370;42.764;23.432;2023-07-02T02:13:57;15.00;;;7.78;;
41685;SDS011;27370;42.764;23.432;2023-07-02T02:16:23;16.02;;;7.45;;
41685;SDS011;27370;42.764;23.432;2023-07-02T02:18:49;19.05;;;7.68;;
41685;SDS011;27370;42.764;23.432;2023-07-02T02:21:19;17.60;;;7.82;;
41685;SDS011;27370;42.764;23.432;2023-07-02T02:23:45;19.90;;;8.20;;
41685;SDS011;27370;42.764;23.432;2023-07-02T02:26:11;20.50;;;8.48;;
41685;SDS011;27370;42.764;23.432;2023-07-02T02:28:36;27.38;;;8.30;;
41685;SDS011;27370;42.764;23.432;2023-07-02T02:31:03;20.02;;;7.70;;
41685;SDS011;27370;42.764;23.432;2023-07-02T02:33:29;20.75;;;8.07;;
41685;SDS011;27370;42.764;23.432;2023-07-02T02:35:55;18.40;;;8.07;;
41685;SDS011;27370;42.764;23.432;2023-07-02T02:38:22;23.70;;;8.73;;
41685;SDS011;27370;42.764;23.432;2023-07-02T02:40:47;19.52;;;8.15;;
41685;SDS011;27370;42.764;23.432;2023-07-02T02:43:16;20.65;;;7.97;;
41685;SDS011;27370;42.764;23.432;2023-07-02T02:45:43;20.05;;;8.50;;
41685;SDS011;27370;42.764;23.432;2023-07-02T02:48:10;23.15;;;9.38;;
41685;SDS011;27370;42.764;23.432;2023-07-02T02:50:36;22.38;;;9.48;;
41685;SDS011;27370;42.764;23.432;2023-07-02T02:53:06;18.92;;;8.77;;
41685;SDS011;27370;42.764;23.432;2023-07-02T02:55:32;24.98;;;10.05;;
41685;SDS011;27370;42.764;23.432;2023-07-02T02:57:58;25.60;;;9.65;;
41685;SDS011;27370;42.764;23.432;2023-07-02T03:00:24;23.80;;;9.88;;
41685;SDS011;27370;42.764;23.432;2023-07-02T03:02:50;28.95;;;10.45;;
41685;SDS011;27370;42.764;23.432;2023-07-02T03:05:15;25.27;;;9.82;;
41685;SDS011;27370;42.764;23.432;2023-07-02T03:07:41;22.70;;;10.75;;
41685;SDS011;27370;42.764;23.432;2023-07-02T03:10:07;24.48;;;10.43;;
41685;SDS011;27370;42.764;23.432;2023-07-02T03:12:33;20.27;;;10.68;;
41685;SDS011;27370;42.764;23.432;2023-07-02T03:14:58;26.83;;;11.20;;
41685;SDS011;27370;42.764;23.432;2023-07-02T03:17:24;22.20;;;11.30;;
41685;SDS011;27370;42.764;23.432;2023-07-02T03:19:49;26.95;;;11.07;;
41685;SDS011;27370;42.764;23.432;2023-07-02T03:22:15;21.77;;;11.40;;
41685;SDS011;27370;42.764;23.432;2023-07-02T03:24:41;24.70;;;11.30;;
41685;SDS011;27370;42.764;23.432;2023-07-02T03:27:06;24.92;;;11.18;;
41685;SDS011;27370;42.764;23.432;2023-07-02T03:29:33;22.13;;;10.55;;
41685;SDS011;27370;42.764;23.432;2023-07-02T03:31:59;26.30;;;10.75;;
41685;SDS011;27370;42.764;23.432;2023-07-02T03:34:25;19.17;;;9.63;;
41685;SDS011;27370;42.764;23.432;2023-07-02T03:36:51;23.33;;;10.65;;
41685;SDS011;27370;42.764;23.432;2023-07-02T03:39:16;22.50;;;10.98;;
41685;SDS011;27370;42.764;23.432;2023-07-02T03:41:43;24.50;;;10.75;;
41685;SDS011;27370;42.764;23.432;2023-07-02T03:44:09;24.13;;;10.48;;
41685;SDS011;27370;42.764;23.432;2023-07-02T03:46:34;23.27;;;9.88;;
41685;SDS011;27370;42.764;23.432;2023-07-02T03:49:00;18.85;;;9.10;;
41685;SDS011;27370;42.764;23.432;2023-07-02T03:51:26;19.85;;;8.70;;
41685;SDS011;27370;42.764;23.432;2023-07-02T03:53:51;19.15;;;8.70;;
41685;SDS011;27370;42.764;23.432;2023-07-02T03:56:17;18.25;;;9.63;;
41685;SDS011;27370;42.764;23.432;2023-07-02T03:58:42;21.98;;;8.63;;
41685;SDS011;27370;42.764;23.432;2023-07-02T04:01:08;20.40;;;9.55;;
41685;SDS011;27370;42.764;23.432;2023-07-02T04:03:34;17.20;;;8.82;;
41685;SDS011;27370;42.764;23.432;2023-07-02T04:05:59;23.70;;;10.10;;
41685;SDS011;27370;42.764;23.432;2023-07-02T04:08:25;21.33;;;8.95;;
41685;SDS011;27370;42.764;23.432;2023-07-02T04:10:53;16.13;;;9.48;;
41685;SDS011;27370;42.764;23.432;2023-07-02T04:13:19;20.98;;;9.57;;
41685;SDS011;27370;42.764;23.432;2023-07-02T04:15:45;19.23;;;9.18;;
41685;SDS011;27370;42.764;23.432;2023-07-02T04:18:10;17.38;;;9.15;;
41685;SDS011;27370;42.764;23.432;2023-07-02T04:20:36;22.77;;;9.93;;
41685;SDS011;27370;42.764;23.432;2023-07-02T04:23:04;16.65;;;8.90;;
41685;SDS011;27370;42.764;23.432;2023-07-02T04:25:30;22.05;;;9.20;;
41685;SDS011;27370;42.764;23.432;2023-07-02T04:27:55;22.63;;;9.40;;
41685;SDS011;27370;42.764;23.432;2023-07-02T04:30:22;21.02;;;9.23;;
41685;SDS011;27370;42.764;23.432;2023-07-02T04:32:47;23.25;;;11.07;;
41685;SDS011;27370;42.764;23.432;2023-07-02T04:35:13;20.65;;;10.25;;
41685;SDS011;27370;42.764;23.432;2023-07-02T04:37:39;21.27;;;9.45;;
41685;SDS011;27370;42.764;23.432;2023-07-02T04:40:05;25.63;;;10.98;;
41685;SDS011;27370;42.764;23.432;2023-07-02T04:42:37;26.80;;;10.77;;
41685;SDS011;27370;42.764;23.432;2023-07-02T04:45:07;29.58;;;9.85;;
41685;SDS011;27370;42.764;23.432;2023-07-02T04:47:33;20.60;;;10.18;;
41685;SDS011;27370;42.764;23.432;2023-07-02T04:49:59;23.77;;;10.80;;
41685;SDS011;27370;42.764;23.432;2023-07-02T04:52:25;21.20;;;10.20;;
41685;SDS011;27370;42.764;23.432;2023-07-02T04:54:50;23.00;;;10.85;;
41685;SDS011;27370;42.764;23.432;2023-07-02T04:57:16;20.65;;;11.05;;
41685;SDS011;27370;42.764;23.432;2023-07-02T04:59:42;27.38;;;12.00;;
41685;SDS011;27370;42.764;23.432;2023-07-02T05:02:08;20.95;;;11.43;;
41685;SDS011;27370;42.764;23.432;2023-07-02T05:04:34;24.88;;;12.45;;
41685;SDS011;27370;42.764;23.432;2023-07-02T05:07:01;20.27;;;11.10;;
41685;SDS011;27370;42.764;23.432;2023-07-02T05:09:26;26.90;;;11.57;;
41685;SDS011;27370;42.764;23.432;2023-07-02T05:11:52;20.58;;;11.07;;
41685;SDS011;27370;42.764;23.432;2023-07-02T05:14:17;21.00;;;10.43;;
41685;SDS011;27370;42.764;23.432;2023-07-02T05:16:43;19.92;;;11.15;;
41685;SDS011;27370;42.764;23.432;2023-07-02T05:19:09;23.10;;;11.65;;
41685;SDS011;27370;42.764;23.432;2023-07-02T05:21:34;20.75;;;11.60;;
41685;SDS011;27370;42.764;23.432;2023-07-02T05:24:00;21.48;;;11.38;;
41685;SDS011;27370;42.764;23.432;2023-07-02T05:26:25;17.63;;;11.60;;
41685;SDS011;27370;42.764;23.432;2023-07-02T05:28:52;21.48;;;11.52;;
41685;SDS011;27370;42.764;23.432;2023-07-02T05:31:17;22.65;;;11.63;;
41685;SDS011;27370;42.764;23.432;2023-07-02T05:33:43;18.80;;;12.00;;
41685;SDS011;27370;42.764;23.432;2023-07-02T05:36:09;20.45;;;12.48;;
41685;SDS011;27370;42.764;23.432;2023-07-02T05:38:34;23.40;;;12.02;;
41685;SDS011;27370;42.764;23.432;2023-07-02T05:41:01;22.27;;;11.55;;
41685;SDS011;27370;42.764;23.432;2023-07-02T05:43:30;23.48;;;12.05;;
41685;SDS011;27370;42.764;23.432;2023-07-02T05:45:57;23.83;;;12.45;;
41685;SDS011;27370;42.764;23.432;2023-07-02T05:48:25;20.88;;;11.98;;
41685;SDS011;27370;42.764;23.432;2023-07-02T05:50:51;21.40;;;13.50;;
41685;SDS011;27370;42.764;23.432;2023-07-02T05:53:17;20.88;;;13.43;;
41685;SDS011;27370;42.764;23.432;2023-07-02T05:55:42;25.67;;;13.75;;
41685;SDS011;27370;42.764;23.432;2023-07-02T05:58:08;22.20;;;13.43;;
41685;SDS011;27370;42.764;23.432;2023-07-02T06:00:34;21.45;;;14.40;;
41685;SDS011;27370;42.764;23.432;2023-07-02T06:02:59;25.33;;;14.63;;
41685;SDS011;27370;42.764;23.432;2023-07-02T06:05:25;28.92;;;17.70;;
41685;SDS011;27370;42.764;23.432;2023-07-02T06:07:50;37.17;;;23.60;;
41685;SDS011;27370;42.764;23.432;2023-07-02T06:10:16;44.88;;;31.45;;
41685;SDS011;27370;42.764;23.432;2023-07-02T06:12:42;46.22;;;30.90;;
41685;SDS011;27370;42.764;23.432;2023-07-02T06:15:08;46.00;;;32.60;;
41685;SDS011;27370;42.764;23.432;2023-07-02T06:17:34;38.50;;;29.35;;
41685;SDS011;27370;42.764;23.432;2023-07-02T06:20:01;31.38;;;22.98;;
41685;SDS011;27370;42.764;23.432;2023-07-02T06:22:30;37.67;;;26.35;;
41685;SDS011;27370;42.764;23.432;2023-07-02T06:24:55;29.70;;;22.40;;
41685;SDS011;27370;42.764;23.432;2023-07-02T06:27:21;25.02;;;14.32;;
41685;SDS011;27370;42.764;23.432;2023-07-02T06:29:46;20.17;;;10.95;;
41685;SDS011;27370;42.764;23.432;2023-07-02T06:32:12;17.80;;;9.82;;
41685;SDS011;27370;42.764;23.432;2023-07-02T06:34:37;19.50;;;12.27;;
41685;SDS011;27370;42.764;23.432;2023-07-02T06:37:03;21.30;;;12.02;;
41685;SDS011;27370;42.764;23.432;2023-07-02T06:39:29;17.80;;;9.07;;
41685;SDS011;27370;42.764;23.432;2023-07-02T06:41:54;15.02;;;8.65;;
41685;SDS011;27370;42.764;23.432;2023-07-02T06:44:27;19.17;;;9.35;;
41685;SDS011;27370;42.764;23.432;2023-07-02T06:46:52;18.42;;;9.80;;
41685;SDS011;27370;42.764;23.432;2023-07-02T06:49:18;19.25;;;11.18;;
41685;SDS011;27370;42.764;23.432;2023-07-02T06:51:43;20.27;;;12.55;;
41685;SDS011;27370;42.764;23.432;2023-07-02T06:54:08;20.67;;;10.32;;
41685;SDS011;27370;42.764;23.432;2023-07-02T06:56:34;21.73;;;9.50;;
41685;SDS011;27370;42.764;23.432;2023-07-02T06:59:02;16.48;;;8.77;;
41685;SDS011;27370;42.764;23.432;2023-07-02T07:01:28;16.10;;;9.27;;
41685;SDS011;27370;42.764;23.432;2023-07-02T07:03:53;17.45;;;9.75;;
41685;SDS011;27370;42.764;23.432;2023-07-02T07:06:19;16.95;;;8.93;;
41685;SDS011;27370;42.764;23.432;2023-07-02T07:08:45;19.48;;;9.40;;
41685;SDS011;27370;42.764;23.432;2023-07-02T07:11:11;18.73;;;9.77;;
41685;SDS011;27370;42.764;23.432;2023-07-02T07:13:36;18.02;;;9.70;;
41685;SDS011;27370;42.764;23.432;2023-07-02T07:16:02;17.27;;;10.15;;
41685;SDS011;27370;42.764;23.432;2023-07-02T07:18:27;17.90;;;10.57;;
41685;SDS011;27370;42.764;23.432;2023-07-02T07:20:53;22.17;;;9.50;;
41685;SDS011;27370;42.764;23.432;2023-07-02T07:23:18;18.67;;;10.13;;
41685;SDS011;27370;42.764;23.432;2023-07-02T07:25:44;19.73;;;10.75;;
41685;SDS011;27370;42.764;23.432;2023-07-02T07:28:09;19.38;;;10.68;;
41685;SDS011;27370;42.764;23.432;2023-07-02T07:30:44;16.58;;;10.05;;
41685;SDS011;27370;42.764;23.432;2023-07-02T07:33:09;16.90;;;9.95;;
41685;SDS011;27370;42.764;23.432;2023-07-02T07:35:35;17.65;;;9.75;;
41685;SDS011;27370;42.764;23.432;2023-07-02T07:38:01;19.20;;;9.25;;
41685;SDS011;27370;42.764;23.432;2023-07-02T07:40:27;19.52;;;9.82;;
41685;SDS011;27370;42.764;23.432;2023-07-02T07:42:52;19.60;;;9.70;;
41685;SDS011;27370;42.764;23.432;2023-07-02T07:45:18;18.75;;;9.85;;
41685;SDS011;27370;42.764;23.432;2023-07-02T07:47:43;17.50;;;9.30;;
41685;SDS011;27370;42.764;23.432;2023-07-02T07:50:09;16.48;;;8.88;;
41685;SDS011;27370;42.764;23.432;2023-07-02T07:52:38;15.75;;;8.02;;
41685;SDS011;27370;42.764;23.432;2023-07-02T07:55:04;15.43;;;8.18;;
41685;SDS011;27370;42.764;23.432;2023-07-02T07:57:31;16.35;;;8.88;;
41685;SDS011;27370;42.764;23.432;2023-07-02T07:59:56;16.77;;;8.07;;
41685;SDS011;27370;42.764;23.432;2023-07-02T08:02:22;15.50;;;8.13;;
41685;SDS011;27370;42.764;23.432;2023-07-02T08:04:48;17.10;;;9.30;;
41685;SDS011;27370;42.764;23.432;2023-07-02T08:07:14;17.50;;;9.30;;
41685;SDS011;27370;42.764;23.432;2023-07-02T08:09:39;19.48;;;9.63;;
41685;SDS011;27370;42.764;23.432;2023-07-02T08:12:05;18.27;;;9.80;;
41685;SDS011;27370;42.764;23.432;2023-07-02T08:14:31;20.70;;;10.82;;
41685;SDS011;27370;42.764;23.432;2023-07-02T08:16:56;19.02;;;10.40;;
41685;SDS011;27370;42.764;23.432;2023-07-02T08:19:22;21.77;;;11.32;;
41685;SDS011;27370;42.764;23.432;2023-07-02T08:21:49;18.02;;;9.98;;
41685;SDS011;27370;42.764;23.432;2023-07-02T08:24:14;16.83;;;9.38;;
41685;SDS011;27370;42.764;23.432;2023-07-02T08:26:40;17.08;;;9.70;;
41685;SDS011;27370;42.764;23.432;2023-07-02T08:29:05;18.90;;;9.98;;
41685;SDS011;27370;42.764;23.432;2023-07-02T08:31:31;14.50;;;8.73;;
41685;SDS011;27370;42.764;23.432;2023-07-02T08:33:56;19.05;;;9.50;;
41685;SDS011;27370;42.764;23.432;2023-07-02T08:36:22;15.82;;;9.07;;
41685;SDS011;27370;42.764;23.432;2023-07-02T08:38:47;14.38;;;8.77;;
41685;SDS011;27370;42.764;23.432;2023-07-02T08:41:13;15.93;;;8.65;;
41685;SDS011;27370;42.764;23.432;2023-07-02T08:43:38;15.05;;;9.52;;
41685;SDS011;27370;42.764;23.432;2023-07-02T08:46:05;20.55;;;9.48;;
41685;SDS011;27370;42.764;23.432;2023-07-02T08:48:33;17.83;;;9.15;;
41685;SDS011;27370;42.764;23.432;2023-07-02T08:50:59;15.40;;;8.32;;
41685;SDS011;27370;42.764;23.432;2023-07-02T08:53:25;14.45;;;8.00;;
41685;SDS011;27370;42.764;23.432;2023-07-02T08:55:55;16.35;;;8.27;;
41685;SDS011;27370;42.764;23.432;2023-07-02T08:58:21;16.42;;;7.80;;
41685;SDS011;27370;42.764;23.432;2023-07-02T09:03:36;15.18;;;8.07;;
41685;SDS011;27370;42.764;23.432;2023-07-02T09:06:03;16.48;;;8.07;;
41685;SDS011;27370;42.764;23.432;2023-07-02T09:08:29;16.25;;;8.13;;
41685;SDS011;27370;42.764;23.432;2023-07-02T09:11:14;15.65;;;8.07;;
41685;SDS011;27370;42.764;23.432;2023-07-02T09:13:51;14.35;;;8.48;;
41685;SDS011;27370;42.764;23.432;2023-07-02T09:22:07;15.85;;;8.38;;
41685;SDS011;27370;42.764;23.432;2023-07-02T09:26:54;15.85;;;8.27;;
41685;SDS011;27370;42.764;23.432;2023-07-02T09:31:56;15.30;;;7.43;;
41685;SDS011;27370;42.764;23.432;2023-07-02T09:34:30;14.73;;;7.20;;
41685;SDS011;27370;42.764;23.432;2023-07-02T09:36:57;12.48;;;6.72;;
41685;SDS011;27370;42.764;23.432;2023-07-02T09:39:27;14.60;;;7.70;;
41685;SDS011;27370;42.764;23.432;2023-07-02T09:41:57;14.82;;;7.60;;
41685;SDS011;27370;42.764;23.432;2023-07-02T09:44:29;17.00;;;7.55;;
41685;SDS011;27370;42.764;23.432;2023-07-02T09:47:02;13.10;;;7.35;;
41685;SDS011;27370;42.764;23.432;2023-07-02T09:49:33;14.65;;;8.40;;
41685;SDS011;27370;42.764;23.432;2023-07-02T09:52:04;15.25;;;7.93;;
41685;SDS011;27370;42.764;23.432;2023-07-02T09:54:31;15.25;;;8.65;;
41685;SDS011;27370;42.764;23.432;2023-07-02T09:56:57;14.60;;;7.88;;
41685;SDS011;27370;42.764;23.432;2023-07-02T09:59:27;13.88;;;7.43;;
41685;SDS011;27370;42.764;23.432;2023-07-02T10:04:19;14.82;;;7.35;;
41685;SDS011;27370;42.764;23.432;2023-07-02T10:09:33;13.35;;;7.80;;
41685;SDS011;27370;42.764;23.432;2023-07-02T10:12:22;15.57;;;7.43;;
41685;SDS011;27370;42.764;23.432;2023-07-02T10:14:50;15.25;;;8.02;;
41685;SDS011;27370;42.764;23.432;2023-07-02T10:19:57;13.38;;;6.93;;
41685;SDS011;27370;42.764;23.432;2023-07-02T10:22:42;14.73;;;6.30;;
41685;SDS011;27370;42.764;23.432;2023-07-02T10:25:51;12.63;;;6.60;;
41685;SDS011;27370;42.764;23.432;2023-07-02T10:28:16;13.93;;;6.13;;
41685;SDS011;27370;42.764;23.432;2023-07-02T10:30:49;14.50;;;6.53;;
41685;SDS011;27370;42.764;23.432;2023-07-02T10:33:15;14.48;;;7.32;;
41685;SDS011;27370;42.764;23.432;2023-07-02T10:35:42;13.27;;;6.50;;
41685;SDS011;27370;42.764;23.432;2023-07-02T10:38:20;12.05;;;5.78;;
41685;SDS011;27370;42.764;23.432;2023-07-02T10:40:53;12.82;;;6.22;;
41685;SDS011;27370;42.764;23.432;2023-07-02T10:43:25;15.13;;;6.82;;
41685;SDS011;27370;42.764;23.432;2023-07-02T10:45:57;13.20;;;6.90;;
41685;SDS011;27370;42.764;23.432;2023-07-02T10:48:27;13.05;;;6.22;;
41685;SDS011;27370;42.764;23.432;2023-07-02T10:50:54;13.10;;;6.25;;
41685;SDS011;27370;42.764;23.432;2023-07-02T10:53:19;13.23;;;6.63;;
41685;SDS011;27370;42.764;23.432;2023-07-02T10:55:45;11.45;;;6.10;;
41685;SDS011;27370;42.764;23.432;2023-07-02T10:58:18;12.55;;;6.60;;
41685;SDS011;27370;42.764;23.432;2023-07-02T11:00:44;12.68;;;6.43;;
41685;SDS011;27370;42.764;23.432;2023-07-02T11:05:44;11.63;;;6.07;;
41685;SDS011;27370;42.764;23.432;2023-07-02T11:08:10;11.50;;;6.13;;
41685;SDS011;27370;42.764;23.432;2023-07-02T11:10:35;12.48;;;5.85;;
41685;SDS011;27370;42.764;23.432;2023-07-02T11:13:13;11.30;;;6.05;;
41685;SDS011;27370;42.764;23.432;2023-07-02T11:15:39;10.98;;;5.63;;
41685;SDS011;27370;42.764;23.432;2023-07-02T11:18:13;11.70;;;5.95;;
41685;SDS011;27370;42.764;23.432;2023-07-02T11:20:43;11.27;;;6.53;;
41685;SDS011;27370;42.764;23.432;2023-07-02T11:25:54;12.47;;;7.40;;
41685;SDS011;27370;42.764;23.432;2023-07-02T11:28:24;11.82;;;6.15;;
41685;SDS011;27370;42.764;23.432;2023-07-02T11:30:50;12.48;;;6.90;;
41685;SDS011;27370;42.764;23.432;2023-07-02T11:33:15;14.50;;;6.93;;
41685;SDS011;27370;42.764;23.432;2023-07-02T11:35:41;12.18;;;6.28;;
41685;SDS011;27370;42.764;23.432;2023-07-02T11:38:08;12.90;;;6.80;;
41685;SDS011;27370;42.764;23.432;2023-07-02T11:40:35;12.18;;;6.95;;
41685;SDS011;27370;42.764;23.432;2023-07-02T11:43:01;23.38;;;6.05;;
41685;SDS011;27370;42.764;23.432;2023-07-02T11:45:28;11.77;;;5.55;;
41685;SDS011;27370;42.764;23.432;2023-07-02T11:47:54;11.75;;;5.88;;
41685;SDS011;27370;42.764;23.432;2023-07-02T11:50:19;13.07;;;5.55;;
41685;SDS011;27370;42.764;23.432;2023-07-02T11:52:45;13.02;;;5.65;;
41685;SDS011;27370;42.764;23.432;2023-07-02T11:55:11;10.75;;;5.18;;
41685;SDS011;27370;42.764;23.432;2023-07-02T11:57:36;9.85;;;5.47;;
41685;SDS011;27370;42.764;23.432;2023-07-02T12:00:02;11.18;;;5.60;;
41685;SDS011;27370;42.764;23.432;2023-07-02T12:02:33;11.88;;;4.82;;
41685;SDS011;27370;42.764;23.432;2023-07-02T12:04:58;10.75;;;5.25;;
41685;SDS011;27370;42.764;23.432;2023-07-02T12:07:24;12.98;;;6.10;;
41685;SDS011;27370;42.764;23.432;2023-07-02T12:09:50;13.13;;;5.93;;
41685;SDS011;27370;42.764;23.432;2023-07-02T12:12:15;11.55;;;5.63;;
41685;SDS011;27370;42.764;23.432;2023-07-02T12:14:41;12.25;;;5.43;;
41685;SDS011;27370;42.764;23.432;2023-07-02T12:17:08;10.27;;;5.25;;
41685;SDS011;27370;42.764;23.432;2023-07-02T12:19:38;10.82;;;5.80;;
41685;SDS011;27370;42.764;23.432;2023-07-02T12:22:04;12.23;;;5.43;;
41685;SDS011;27370;42.764;23.432;2023-07-02T12:24:30;11.73;;;5.80;;
41685;SDS011;27370;42.764;23.432;2023-07-02T12:26:55;13.20;;;6.40;;
41685;SDS011;27370;42.764;23.432;2023-07-02T12:29:21;12.23;;;6.60;;
41685;SDS011;27370;42.764;23.432;2023-07-02T12:31:46;12.00;;;7.00;;
41685;SDS011;27370;42.764;23.432;2023-07-02T12:34:12;11.77;;;6.13;;
41685;SDS011;27370;42.764;23.432;2023-07-02T12:36:37;11.77;;;5.70;;
41685;SDS011;27370;42.764;23.432;2023-07-02T12:39:03;12.93;;;6.22;;
41685;SDS011;27370;42.764;23.432;2023-07-02T12:41:28;11.82;;;5.68;;
41685;SDS011;27370;42.764;23.432;2023-07-02T12:43:56;10.65;;;5.38;;
41685;SDS011;27370;42.764;23.432;2023-07-02T12:46:21;10.88;;;5.55;;
41685;SDS011;27370;42.764;23.432;2023-07-02T12:48:47;10.68;;;5.45;;
41685;SDS011;27370;42.764;23.432;2023-07-02T12:51:12;10.15;;;5.30;;
41685;SDS011;27370;42.764;23.432;2023-07-02T12:53:38;11.90;;;5.97;;
41685;SDS011;27370;42.764;23.432;2023-07-02T12:56:03;10.45;;;5.30;;
41685;SDS011;27370;42.764;23.432;2023-07-02T12:58:29;11.18;;;5.70;;
41685;SDS011;27370;42.764;23.432;2023-07-02T13:00:55;10.77;;;5.82;;
41685;SDS011;27370;42.764;23.432;2023-07-02T13:03:21;11.88;;;5.63;;
41685;SDS011;27370;42.764;23.432;2023-07-02T13:05:48;12.07;;;6.10;;
41685;SDS011;27370;42.764;23.432;2023-07-02T13:08:14;10.52;;;5.55;;
41685;SDS011;27370;42.764;23.432;2023-07-02T13:10:40;10.52;;;5.78;;
41685;SDS011;27370;42.764;23.432;2023-07-02T13:13:05;10.63;;;5.75;;
41685;SDS011;27370;42.764;23.432;2023-07-02T13:15:31;10.98;;;5.68;;
41685;SDS011;27370;42.764;23.432;2023-07-02T13:17:56;13.35;;;6.50;;
41685;SDS011;27370;42.764;23.432;2023-07-02T13:20:22;10.32;;;5.70;;
41685;SDS011;27370;42.764;23.432;2023-07-02T13:22:47;11.43;;;5.95;;
41685;SDS011;27370;42.764;23.432;2023-07-02T13:25:13;10.70;;;5.78;;
41685;SDS011;27370;42.764;23.432;2023-07-02T13:27:38;12.77;;;6.50;;
41685;SDS011;27370;42.764;23.432;2023-07-02T13:30:04;11.65;;;6.22;;
41685;SDS011;27370;42.764;23.432;2023-07-02T13:32:30;12.55;;;6.68;;
41685;SDS011;27370;42.764;23.432;2023-07-02T13:34:56;11.27;;;6.30;;
41685;SDS011;27370;42.764;23.432;2023-07-02T13:37:21;10.98;;;6.15;;
41685;SDS011;27370;42.764;23.432;2023-07-02T13:39:47;11.52;;;7.00;;
41685;SDS011;27370;42.764;23.432;2023-07-02T13:42:13;17.45;;;7.03;;
41685;SDS011;27370;42.764;23.432;2023-07-02T13:44:39;14.10;;;7.43;;
41685;SDS011;27370;42.764;23.432;2023-07-02T13:47:05;11.68;;;6.47;;
41685;SDS011;27370;42.764;23.432;2023-07-02T13:49:31;12.45;;;5.93;;
41685;SDS011;27370;42.764;23.432;2023-07-02T13:51:57;11.95;;;6.50;;
41685;SDS011;27370;42.764;23.432;2023-07-02T13:54:23;10.95;;;6.53;;
41685;SDS011;27370;42.764;23.432;2023-07-02T13:56:49;11.98;;;6.22;;
41685;SDS011;27370;42.764;23.432;2023-07-02T13:59:15;10.65;;;5.90;;
41685;SDS011;27370;42.764;23.432;2023-07-02T14:01:42;11.70;;;6.20;;
41685;SDS011;27370;42.764;23.432;2023-07-02T14:04:08;11.70;;;6.40;;
41685;SDS011;27370;42.764;23.432;2023-07-02T14:06:34;14.05;;;6.38;;
41685;SDS011;27370;42.764;23.432;2023-07-02T14:08:59;13.05;;;6.13;;
41685;SDS011;27370;42.764;23.432;2023-07-02T14:11:25;13.13;;;5.88;;
41685;SDS011;27370;42.764;23.432;2023-07-02T14:13:53;10.93;;;6.10;;
41685;SDS011;27370;42.764;23.432;2023-07-02T14:16:19;13.57;;;6.63;;
41685;SDS011;27370;42.764;23.432;2023-07-02T14:18:45;12.45;;;6.70;;
41685;SDS011;27370;42.764;23.432;2023-07-02T14:21:11;24.98;;;7.40;;
41685;SDS011;27370;42.764;23.432;2023-07-02T14:23:37;13.48;;;7.25;;
41685;SDS011;27370;42.764;23.432;2023-07-02T14:26:02;14.10;;;6.97;;
41685;SDS011;27370;42.764;23.432;2023-07-02T14:28:28;13.50;;;7.50;;
41685;SDS011;27370;42.764;23.432;2023-07-02T14:31:01;14.68;;;7.07;;
41685;SDS011;27370;42.764;23.432;2023-07-02T14:33:29;16.60;;;7.05;;
41685;SDS011;27370;42.764;23.432;2023-07-02T14:35:56;17.83;;;7.65;;
41685;SDS011;27370;42.764;23.432;2023-07-02T14:38:22;17.50;;;6.72;;
41685;SDS011;27370;42.764;23.432;2023-07-02T14:40:49;25.05;;;7.88;;
41685;SDS011;27370;42.764;23.432;2023-07-02T14:43:17;17.02;;;6.97;;
41685;SDS011;27370;42.764;23.432;2023-07-02T14:45:52;17.90;;;6.80;;